# Tabular Observed and Forecast Hydrograph Information
#
# Location: Truckee River - Vista (VISN2)
#
# File Generation Time: 05/05/2026 at 07:24 AM PDT
# Data Interval: 1 Hour
#
# Most Recent Date & Time of Maximum Observed: 05/04/2026 at 09:00 PM PDT
# Maximum Observed Stage: 6.16 Feet
# Maximum Observed Flow: 1203 cfs
#
# Earliest Date & Time of Maximum Forecast: 05/05/2026 at 11:00 AM PDT
# Maximum Forecast Stage: 6.33 Feet
# Maximum Forecast Flow: 1271 cfs
#
# OBSERVED
#
# Date & Time (Local) Stage (Feet) Flow (cfs) Trend Observed Status
# ---------------------------------------------------------------------------------
04/30/2026 07 AM PDT 5.46 940 Normal
04/30/2026 08 AM PDT 5.44 933 - Normal
04/30/2026 09 AM PDT 5.45 936 + Normal
04/30/2026 10 AM PDT 5.46 940 + Normal
04/30/2026 11 AM PDT 5.48 947 + Normal
04/30/2026 12 PM PDT 5.50 954 + Normal
04/30/2026 01 PM PDT 5.48 947 - Normal
04/30/2026 02 PM PDT 5.46 940 - Normal
04/30/2026 03 PM PDT 5.47 943 + Normal
04/30/2026 04 PM PDT 5.46 940 - Normal
04/30/2026 05 PM PDT 5.47 943 + Normal
04/30/2026 06 PM PDT 5.46 940 - Normal
04/30/2026 07 PM PDT 5.47 943 + Normal
04/30/2026 08 PM PDT 5.44 933 - Normal
04/30/2026 09 PM PDT 5.46 940 + Normal
04/30/2026 10 PM PDT 5.49 951 + Normal
04/30/2026 11 PM PDT 5.52 961 + Normal
05/01/2026 12 AM PDT 5.54 968 + Normal
05/01/2026 01 AM PDT 5.54 968 0 Normal
05/01/2026 02 AM PDT 5.57 979 + Normal
05/01/2026 03 AM PDT 5.59 987 + Normal
05/01/2026 04 AM PDT 5.60 990 + Normal
05/01/2026 05 AM PDT 5.61 994 + Normal
05/01/2026 06 AM PDT 5.64 1005 + Normal
05/01/2026 07 AM PDT 5.67 1016 + Normal
05/01/2026 08 AM PDT 5.65 1008 - Normal
05/01/2026 09 AM PDT 5.62 997 - Normal
05/01/2026 10 AM PDT 5.62 997 0 Normal
05/01/2026 11 AM PDT 5.66 1012 + Normal
05/01/2026 12 PM PDT 5.67 1016 + Normal
05/01/2026 01 PM PDT 5.66 1012 - Normal
05/01/2026 02 PM PDT 5.62 997 - Normal
05/01/2026 03 PM PDT 5.63 1001 + Normal
05/01/2026 04 PM PDT 5.63 1001 0 Normal
05/01/2026 05 PM PDT 5.62 997 - Normal
05/01/2026 06 PM PDT 5.61 994 - Normal
05/01/2026 07 PM PDT 5.61 994 0 Normal
05/01/2026 08 PM PDT 5.59 987 - Normal
05/01/2026 09 PM PDT 5.58 983 - Normal
05/01/2026 10 PM PDT 5.55 972 - Normal
05/01/2026 11 PM PDT 5.52 961 - Normal
05/02/2026 12 AM PDT 5.52 961 0 Normal
05/02/2026 01 AM PDT 5.51 958 - Normal
05/02/2026 02 AM PDT 5.51 958 0 Normal
05/02/2026 03 AM PDT 5.50 954 - Normal
05/02/2026 04 AM PDT 5.50 954 0 Normal
05/02/2026 05 AM PDT 5.49 951 - Normal
05/02/2026 06 AM PDT 5.51 958 + Normal
05/02/2026 07 AM PDT 5.54 968 + Normal
05/02/2026 08 AM PDT 5.56 976 + Normal
05/02/2026 09 AM PDT 5.57 979 + Normal
05/02/2026 10 AM PDT 5.57 979 0 Normal
05/02/2026 11 AM PDT 5.57 979 0 Normal
05/02/2026 12 PM PDT 5.59 987 + Normal
05/02/2026 01 PM PDT 5.63 1001 + Normal
05/02/2026 02 PM PDT 5.62 997 - Normal
05/02/2026 03 PM PDT 5.61 994 - Normal
05/02/2026 04 PM PDT 5.62 997 + Normal
05/02/2026 05 PM PDT 5.63 1001 + Normal
05/02/2026 06 PM PDT 5.65 1008 + Normal
05/02/2026 07 PM PDT 5.64 1005 - Normal
05/02/2026 08 PM PDT 5.64 1005 0 Normal
05/02/2026 09 PM PDT 5.67 1016 + Normal
05/02/2026 10 PM PDT 5.72 1034 + Normal
05/02/2026 11 PM PDT 5.74 1042 + Normal
05/03/2026 12 AM PDT 5.75 1045 + Normal
05/03/2026 01 AM PDT 5.76 1049 + Normal
05/03/2026 02 AM PDT 5.73 1038 - Normal
05/03/2026 03 AM PDT 5.72 1034 - Normal
05/03/2026 04 AM PDT 5.86 1087 + Normal
05/03/2026 05 AM PDT 5.91 1106 + Normal
05/03/2026 06 AM PDT 5.94 1117 + Normal
05/03/2026 07 AM PDT 5.97 1129 + Normal
05/03/2026 08 AM PDT 5.99 1136 + Normal
05/03/2026 09 AM PDT 5.99 1136 0 Normal
05/03/2026 10 AM PDT 5.98 1133 - Normal
05/03/2026 11 AM PDT 5.96 1125 - Normal
05/03/2026 12 PM PDT 5.95 1121 - Normal
05/03/2026 01 PM PDT 5.97 1129 + Normal
05/03/2026 02 PM PDT 5.97 1129 0 Normal
05/03/2026 03 PM PDT 5.98 1133 + Normal
05/03/2026 04 PM PDT 5.96 1125 - Normal
05/03/2026 05 PM PDT 5.94 1117 - Normal
05/03/2026 06 PM PDT 5.89 1098 - Normal
05/03/2026 07 PM PDT 5.91 1106 + Normal
05/03/2026 08 PM PDT 5.92 1110 + Normal
05/03/2026 09 PM PDT 5.91 1106 - Normal
05/03/2026 10 PM PDT 5.89 1098 - Normal
05/03/2026 11 PM PDT 5.89 1098 0 Normal
05/04/2026 12 AM PDT 5.89 1098 0 Normal
05/04/2026 01 AM PDT 5.87 1090 - Normal
05/04/2026 02 AM PDT 5.83 1075 - Normal
05/04/2026 03 AM PDT 5.82 1072 - Normal
05/04/2026 04 AM PDT 5.83 1075 + Normal
05/04/2026 05 AM PDT 5.84 1079 + Normal
05/04/2026 06 AM PDT 5.88 1094 + Normal
05/04/2026 07 AM PDT 5.94 1117 + Normal
05/04/2026 08 AM PDT 5.94 1117 0 Normal
05/04/2026 09 AM PDT 5.94 1117 0 Normal
05/04/2026 10 AM PDT 5.93 1113 - Normal
05/04/2026 11 AM PDT 5.93 1113 0 Normal
05/04/2026 12 PM PDT 5.91 1106 - Normal
05/04/2026 01 PM PDT 5.89 1098 - Normal
05/04/2026 02 PM PDT 5.89 1098 0 Normal
05/04/2026 03 PM PDT 5.88 1094 - Normal
05/04/2026 04 PM PDT 5.90 1102 + Normal
05/04/2026 05 PM PDT 5.90 1102 0 Normal
05/04/2026 06 PM PDT 5.88 1094 - Normal
05/04/2026 07 PM PDT 5.87 1090 - Normal
05/04/2026 08 PM PDT 6.11 1183 + Normal
05/04/2026 09 PM PDT 6.16 1203 + Normal
05/04/2026 10 PM PDT 6.11 1183 - Normal
05/04/2026 11 PM PDT 6.05 1160 - Normal
05/05/2026 12 AM PDT 6.01 1144 - Normal
05/05/2026 01 AM PDT 6.01 1144 0 Normal
05/05/2026 02 AM PDT 6.00 1140 - Normal
05/05/2026 03 AM PDT 6.02 1148 + Normal
05/05/2026 04 AM PDT 6.03 1152 + Normal
05/05/2026 05 AM PDT 6.05 1160 + Normal
05/05/2026 06 AM PDT 6.07 1167 + Normal
05/05/2026 07 AM PDT 6.11 1183 + Normal
#
# FORECAST
#
# Date & Time (Local) Stage (Feet) Flow (cfs) Trend Forecast Status
# ---------------------------------------------------------------------------------
05/05/2026 08 AM PDT 6.16 1203 Normal
05/05/2026 09 AM PDT 6.24 1235 + Normal
05/05/2026 10 AM PDT 6.29 1255 + Normal
05/05/2026 11 AM PDT 6.33 1271 + Normal
05/05/2026 12 PM PDT 6.32 1267 - Normal
05/05/2026 01 PM PDT 6.28 1251 - Normal
05/05/2026 02 PM PDT 6.22 1227 - Normal
05/05/2026 03 PM PDT 6.18 1211 - Normal
05/05/2026 04 PM PDT 6.15 1199 - Normal
05/05/2026 05 PM PDT 6.12 1187 - Normal
05/05/2026 06 PM PDT 6.09 1175 - Normal
05/05/2026 07 PM PDT 6.06 1164 - Normal
05/05/2026 08 PM PDT 6.04 1156 - Normal
05/05/2026 09 PM PDT 6.01 1144 - Normal
05/05/2026 10 PM PDT 5.98 1133 - Normal
05/05/2026 11 PM PDT 5.96 1125 - Normal
05/06/2026 12 AM PDT 5.94 1117 - Normal
05/06/2026 01 AM PDT 5.92 1110 - Normal
05/06/2026 02 AM PDT 5.90 1102 - Normal
05/06/2026 03 AM PDT 5.88 1094 - Normal
05/06/2026 04 AM PDT 5.87 1090 - Normal
05/06/2026 05 AM PDT 5.87 1090 0 Normal
05/06/2026 06 AM PDT 5.86 1087 - Normal
05/06/2026 07 AM PDT 5.86 1087 0 Normal
05/06/2026 08 AM PDT 5.86 1087 0 Normal
05/06/2026 09 AM PDT 5.86 1087 0 Normal
05/06/2026 10 AM PDT 5.86 1087 0 Normal
05/06/2026 11 AM PDT 5.86 1087 0 Normal
05/06/2026 12 PM PDT 5.86 1087 0 Normal
05/06/2026 01 PM PDT 5.85 1083 - Normal
05/06/2026 02 PM PDT 5.85 1083 0 Normal
05/06/2026 03 PM PDT 5.85 1083 0 Normal
05/06/2026 04 PM PDT 5.84 1079 - Normal
05/06/2026 05 PM PDT 5.83 1075 - Normal
05/06/2026 06 PM PDT 5.82 1072 - Normal
05/06/2026 07 PM PDT 5.80 1064 - Normal
05/06/2026 08 PM PDT 5.79 1060 - Normal
05/06/2026 09 PM PDT 5.78 1057 - Normal
05/06/2026 10 PM PDT 5.77 1053 - Normal
05/06/2026 11 PM PDT 5.76 1049 - Normal
05/07/2026 12 AM PDT 5.75 1045 - Normal
05/07/2026 01 AM PDT 5.75 1045 0 Normal
05/07/2026 02 AM PDT 5.74 1042 - Normal
05/07/2026 03 AM PDT 5.74 1042 0 Normal
05/07/2026 04 AM PDT 5.74 1042 0 Normal
05/07/2026 05 AM PDT 5.74 1042 0 Normal
05/07/2026 06 AM PDT 5.74 1042 0 Normal
05/07/2026 07 AM PDT 5.74 1042 0 Normal
05/07/2026 08 AM PDT 5.74 1042 0 Normal
05/07/2026 09 AM PDT 5.75 1045 + Normal
05/07/2026 10 AM PDT 5.75 1045 0 Normal
05/07/2026 11 AM PDT 5.76 1049 + Normal
05/07/2026 12 PM PDT 5.76 1049 0 Normal
05/07/2026 01 PM PDT 5.76 1049 0 Normal
05/07/2026 02 PM PDT 5.77 1053 + Normal
05/07/2026 03 PM PDT 5.77 1053 0 Normal
05/07/2026 04 PM PDT 5.76 1049 - Normal
05/07/2026 05 PM PDT 5.76 1049 0 Normal
05/07/2026 06 PM PDT 5.75 1045 - Normal
05/07/2026 07 PM PDT 5.75 1045 0 Normal
05/07/2026 08 PM PDT 5.74 1042 - Normal
05/07/2026 09 PM PDT 5.73 1038 - Normal
05/07/2026 10 PM PDT 5.73 1038 0 Normal
05/07/2026 11 PM PDT 5.72 1034 - Normal
05/08/2026 12 AM PDT 5.72 1034 0 Normal
05/08/2026 01 AM PDT 5.72 1034 0 Normal
05/08/2026 02 AM PDT 5.71 1031 - Normal
05/08/2026 03 AM PDT 5.71 1031 0 Normal
05/08/2026 04 AM PDT 5.71 1031 0 Normal
05/08/2026 05 AM PDT 5.71 1031 0 Normal
05/08/2026 06 AM PDT 5.72 1034 + Normal
05/08/2026 07 AM PDT 5.72 1034 0 Normal
05/08/2026 08 AM PDT 5.73 1038 + Normal
05/08/2026 09 AM PDT 5.73 1038 0 Normal
05/08/2026 10 AM PDT 5.74 1042 + Normal
05/08/2026 11 AM PDT 5.75 1045 + Normal
05/08/2026 12 PM PDT 5.75 1045 0 Normal
05/08/2026 01 PM PDT 5.76 1049 + Normal
05/08/2026 02 PM PDT 5.76 1049 0 Normal
05/08/2026 03 PM PDT 5.76 1049 0 Normal
05/08/2026 04 PM PDT 5.75 1045 - Normal
05/08/2026 05 PM PDT 5.75 1045 0 Normal
05/08/2026 06 PM PDT 5.74 1042 - Normal
05/08/2026 07 PM PDT 5.73 1038 - Normal
05/08/2026 08 PM PDT 5.73 1038 0 Normal
05/08/2026 09 PM PDT 5.71 1031 - Normal
05/08/2026 10 PM PDT 5.71 1031 0 Normal
05/08/2026 11 PM PDT 5.70 1027 - Normal
05/09/2026 12 AM PDT 5.70 1027 0 Normal
05/09/2026 01 AM PDT 5.69 1023 - Normal
05/09/2026 02 AM PDT 5.69 1023 0 Normal
05/09/2026 03 AM PDT 5.68 1019 - Normal
05/09/2026 04 AM PDT 5.68 1019 0 Normal
05/09/2026 05 AM PDT 5.68 1019 0 Normal
05/09/2026 06 AM PDT 5.68 1019 0 Normal
05/09/2026 07 AM PDT 5.69 1023 + Normal
05/09/2026 08 AM PDT 5.69 1023 0 Normal
05/09/2026 09 AM PDT 5.70 1027 + Normal
05/09/2026 10 AM PDT 5.71 1031 + Normal
05/09/2026 11 AM PDT 5.72 1034 + Normal
05/09/2026 12 PM PDT 5.72 1034 0 Normal
05/09/2026 01 PM PDT 5.73 1038 + Normal
05/09/2026 02 PM PDT 5.73 1038 0 Normal
05/09/2026 03 PM PDT 5.73 1038 0 Normal
05/09/2026 04 PM PDT 5.72 1034 - Normal
05/09/2026 05 PM PDT 5.72 1034 0 Normal
05/09/2026 06 PM PDT 5.71 1031 - Normal
05/09/2026 07 PM PDT 5.70 1027 - Normal
05/09/2026 08 PM PDT 5.69 1023 - Normal
05/09/2026 09 PM PDT 5.68 1019 - Normal
05/09/2026 10 PM PDT 5.67 1016 - Normal
05/09/2026 11 PM PDT 5.67 1016 0 Normal
05/10/2026 12 AM PDT 5.66 1012 - Normal
05/10/2026 01 AM PDT 5.66 1012 0 Normal
05/10/2026 02 AM PDT 5.65 1008 - Normal
05/10/2026 03 AM PDT 5.65 1008 0 Normal
05/10/2026 04 AM PDT 5.65 1008 0 Normal
05/10/2026 05 AM PDT 5.65 1008 0 Normal
#
# NOTE 1: Stages are rounded to the nearest hundredth (.01) of a foot.
# NOTE 2: Flows are rounded to the nearest (1) cfs.
# NOTE 3: Trends are determined using hourly change in unrounded stage and flow.
# NOTE 4: Maximum Values are determined using unrounded stage and flow.
|